Time;durP1;ratioP1;P1;durP2;ratioP2;P2;SDS_P1;SDS_P2;PMS_P1;PMS_P2;Temp;Humidity;BMP_temperature;BMP_pressure;BME280_temperature;BME280_humidity;BME280_pressure;Samples;Min_cycle;Max_cycle;Signal;HPM_P1;HPM_P2
2022/03/24 00:00:58;;;;;;;22.17;13.73;;;;;;;6.22;72.48;102919.34;5091960;28;20109;-66
2022/03/24 00:03:26;;;;;;;26.45;14.45;;;;;;;6.16;72.87;102911.59;5091930;28;20040;-66
2022/03/24 00:05:55;;;;;;;24.10;13.13;;;;;;;6.13;73.24;102919.47;5091914;28;20032;-66
2022/03/24 00:08:23;;;;;;;24.73;14.75;;;;;;;6.04;74.11;102916.97;5091897;28;20048;-66
2022/03/24 00:10:51;;;;;;;22.83;13.10;;;;;;;6.06;73.47;102915.22;5091800;28;20436;-66
2022/03/24 00:13:19;;;;;;;26.38;13.57;;;;;;;6.02;73.34;102903.06;5091827;28;20390;-65
2022/03/24 00:15:48;;;;;;;24.20;14.02;;;;;;;6.02;74.22;102910.91;5091779;28;20098;-66
2022/03/24 00:32:17;;;;;;;23.27;14.13;;;;;;;5.76;73.87;102910.31;5094245;28;20403;-66
2022/03/24 00:34:46;;;;;;;23.77;14.55;;;;;;;5.72;74.44;102902.53;5094688;28;20051;-65
2022/03/24 00:37:14;;;;;;;23.48;13.35;;;;;;;5.70;74.86;102899.94;5095080;28;20519;-66
2022/03/24 00:39:42;;;;;;;21.95;12.65;;;;;;;5.65;75.21;102908.72;5094846;28;20457;-66
2022/03/24 00:42:12;;;;;;;22.85;13.20;;;;;;;5.71;74.65;102901.69;5094693;28;20055;-65
2022/03/24 00:44:42;;;;;;;25.60;14.30;;;;;;;5.70;73.34;102902.56;5094793;28;20037;-65
2022/03/24 00:47:11;;;;;;;22.42;12.95;;;;;;;5.68;73.90;102898.22;5094826;28;20395;-65
2022/03/24 00:49:42;;;;;;;22.23;14.02;;;;;;;5.54;74.88;102899.25;5094734;28;20048;-65
2022/03/24 00:52:11;;;;;;;29.02;14.32;;;;;;;5.44;75.51;102897.63;5094858;28;20417;-66
2022/03/24 00:54:40;;;;;;;22.67;13.20;;;;;;;5.42;75.78;102897.63;5094509;28;20044;-66
2022/03/24 00:57:08;;;;;;;23.92;13.73;;;;;;;5.42;75.71;102894.16;5094431;28;20066;-66
2022/03/24 00:59:36;;;;;;;22.95;12.13;;;;;;;5.44;75.01;102894.16;5093779;28;20111;-66
2022/03/24 01:02:06;;;;;;;25.55;13.88;;;;;;;5.49;75.04;102892.34;5094149;28;20048;-66
2022/03/24 01:04:35;;;;;;;24.13;14.10;;;;;;;5.45;75.22;102899.34;5093895;28;20058;-66
2022/03/24 01:07:05;;;;;;;22.58;12.93;;;;;;;5.40;75.72;102893.34;5094318;28;20123;-66
2022/03/24 01:09:34;;;;;;;24.33;13.82;;;;;;;5.39;74.65;102886.38;5094301;28;20181;-66
2022/03/24 01:12:03;;;;;;;24.65;14.00;;;;;;;5.38;74.97;102885.50;5094333;28;20472;-66
2022/03/24 01:14:35;;;;;;;21.75;13.55;;;;;;;5.37;74.68;102888.13;5093978;28;20040;-66
2022/03/24 01:17:05;;;;;;;26.23;14.25;;;;;;;5.34;74.94;102885.56;5094191;28;20391;-67
2022/03/24 01:19:33;;;;;;;23.55;13.40;;;;;;;5.29;74.45;102890.84;5094170;28;20032;-66
2022/03/24 01:22:01;;;;;;;20.45;12.88;;;;;;;5.19;74.49;102879.59;5093940;28;20044;-66
2022/03/24 01:24:31;;;;;;;27.13;14.82;;;;;;;5.23;75.52;102880.44;5094095;28;20043;-66
2022/03/24 01:26:59;;;;;;;24.73;13.95;;;;;;;5.20;76.29;102881.34;5092396;28;20048;-66
2022/03/24 01:29:28;;;;;;;23.05;13.80;;;;;;;5.17;74.82;102877.91;5093726;28;20117;-66
2022/03/24 01:31:56;;;;;;;23.60;13.55;;;;;;;5.05;76.47;102882.34;5094095;28;20048;-67
2022/03/24 01:34:25;;;;;;;26.48;15.23;;;;;;;5.14;76.69;102881.41;5093627;28;20050;-66
2022/03/24 01:36:53;;;;;;;24.55;13.68;;;;;;;5.06;76.31;102883.25;5094231;28;20055;-66
2022/03/24 01:39:22;;;;;;;25.90;14.63;;;;;;;5.07;77.03;102879.72;5093438;28;20082;-66
2022/03/24 01:41:52;;;;;;;26.30;15.45;;;;;;;5.05;76.53;102876.28;5093693;28;20109;-65
2022/03/24 01:44:21;;;;;;;23.85;13.88;;;;;;;5.01;75.04;102872.81;5093418;28;20055;-65
2022/03/24 01:46:57;;;;;;;25.88;13.35;;;;;;;4.98;75.48;102874.63;5093665;28;20052;-66
2022/03/24 01:49:26;;;;;;;30.02;15.13;;;;;;;4.94;77.24;102868.56;5093330;28;20036;-56
2022/03/24 01:51:54;;;;;;;24.55;14.80;;;;;;;4.94;77.40;102871.16;5093409;28;20097;-56
2022/03/24 01:54:23;;;;;;;23.63;14.60;;;;;;;4.89;76.67;102870.34;5093019;28;20055;-65
2022/03/24 01:56:53;;;;;;;24.63;14.10;;;;;;;4.84;77.40;102875.59;5092052;28;20048;-66
2022/03/24 01:59:21;;;;;;;24.48;14.73;;;;;;;4.86;76.90;102866.00;5092499;28;20044;-66
2022/03/24 02:01:50;;;;;;;27.48;14.20;;;;;;;4.83;77.40;102866.03;5092758;28;20529;-65
2022/03/24 02:04:19;;;;;;;28.30;15.15;;;;;;;4.77;75.59;102866.06;5092728;28;20052;-66
2022/03/24 02:06:48;;;;;;;25.15;15.13;;;;;;;4.74;76.33;102866.13;5093074;28;20507;-66
2022/03/24 02:09:17;;;;;;;24.45;14.18;;;;;;;4.80;77.18;102863.47;5092745;28;20047;-66
2022/03/24 02:11:45;;;;;;;25.38;14.07;;;;;;;4.78;77.40;102864.34;5093240;28;20395;-66
2022/03/24 02:14:15;;;;;;;26.23;13.85;;;;;;;4.66;76.36;102852.28;5093045;28;20048;-66
2022/03/24 02:16:48;;;;;;;24.98;14.65;;;;;;;4.60;77.17;102858.41;5092947;28;20040;-66
2022/03/24 02:19:20;;;;;;;26.73;15.30;;;;;;;4.56;76.78;102860.16;5093162;28;20048;-66
2022/03/24 02:21:49;;;;;;;;;;;;;;;4.53;77.42;102857.59;5093340;28;20062;-66
2022/03/24 02:24:20;;;;;;;26.55;14.82;;;;;;;4.56;78.25;102859.31;5092797;28;20283;-66
2022/03/24 02:26:50;;;;;;;28.45;16.30;;;;;;;4.56;76.75;102852.34;5092856;28;20048;-66
2022/03/24 02:29:19;;;;;;;26.70;15.73;;;;;;;4.51;77.77;102859.38;5092664;28;20048;-66
2022/03/24 02:31:50;;;;;;;29.35;16.20;;;;;;;4.47;77.97;102864.59;5091636;28;20055;-66
2022/03/24 02:34:40;;;;;;;26.98;14.10;;;;;;;4.47;78.98;102857.66;5092697;28;20052;-66
2022/03/24 02:37:11;;;;;;;24.38;15.23;;;;;;;4.47;77.74;102857.66;5092546;28;20043;-65
2022/03/24 02:39:42;;;;;;;26.13;15.00;;;;;;;4.47;76.93;102852.44;5091767;28;20050;-66
2022/03/24 02:42:13;;;;;;;26.17;14.93;;;;;;;4.42;77.08;102854.22;5092514;28;20052;-66
2022/03/24 02:44:44;;;;;;;25.15;14.32;;;;;;;4.40;77.40;102849.00;5092477;28;20055;-65
2022/03/24 02:47:13;;;;;;;26.77;14.73;;;;;;;4.40;77.45;102850.72;5092246;28;20059;-65
2022/03/24 02:49:42;;;;;;;25.63;14.52;;;;;;;4.37;76.56;102848.16;5092570;28;20079;-66
2022/03/24 02:52:11;;;;;;;28.55;14.95;;;;;;;4.32;77.20;102847.31;5092422;28;20051;-66
2022/03/24 02:54:43;;;;;;;28.15;15.57;;;;;;;4.33;77.88;102851.66;5092672;28;20048;-65
2022/03/24 02:57:14;;;;;;;27.10;15.00;;;;;;;4.29;78.04;102849.97;5092272;28;20047;-65
2022/03/24 02:59:43;;;;;;;26.77;14.55;;;;;;;4.21;78.16;102852.59;5091948;28;20070;-66
2022/03/24 03:02:13;;;;;;;25.10;14.27;;;;;;;4.10;78.84;102854.41;5092268;28;20044;-65
2022/03/24 03:04:43;;;;;;;28.90;15.52;;;;;;;4.09;79.36;102853.56;5092189;28;20112;-66
2022/03/24 03:07:12;;;;;;;26.63;15.30;;;;;;;4.09;79.43;102858.78;5091828;28;20143;-66
2022/03/24 03:09:42;;;;;;;26.77;15.95;;;;;;;4.13;78.08;102857.88;5092004;28;20082;-66
2022/03/24 03:12:12;;;;;;;24.15;15.13;;;;;;;4.07;77.93;102855.28;5091813;28;20044;-66
2022/03/24 03:14:41;;;;;;;25.55;14.85;;;;;;;4.01;78.95;102865.75;5092109;28;20040;-66
2022/03/24 03:17:11;;;;;;;28.55;14.82;;;;;;;4.07;78.05;102857.91;5092368;28;20368;-66
2022/03/24 03:19:41;;;;;;;27.15;14.70;;;;;;;4.07;77.85;102855.28;5092289;28;20495;-65
2022/03/24 03:22:10;;;;;;;29.35;16.45;;;;;;;4.01;78.94;102864.00;5092149;28;20054;-65
2022/03/24 03:24:40;;;;;;;27.13;14.98;;;;;;;3.95;79.11;102868.38;5092122;28;20044;-64
2022/03/24 03:27:10;;;;;;;25.60;14.70;;;;;;;3.98;78.26;102868.34;5092011;28;20044;-57
2022/03/24 03:29:38;;;;;;;26.25;14.75;;;;;;;3.89;78.32;102866.69;5092183;28;20054;-64
2022/03/24 03:32:09;;;;;;;26.20;15.18;;;;;;;3.84;79.26;102864.06;5092071;28;20040;-56
2022/03/24 03:34:38;;;;;;;28.17;14.27;;;;;;;3.84;78.86;102866.69;5091906;28;20146;-65
2022/03/24 03:37:08;;;;;;;28.60;16.08;;;;;;;3.84;78.22;102864.06;5092148;28;20040;-66
2022/03/24 03:39:37;;;;;;;29.80;14.93;;;;;;;3.78;78.17;102861.53;5092086;28;20098;-57
2022/03/24 03:42:05;;;;;;;27.38;14.88;;;;;;;3.81;78.50;102864.09;5092112;28;20094;-58
2022/03/24 03:44:35;;;;;;;29.27;15.18;;;;;;;3.88;77.82;102859.72;5091956;28;20058;-57
2022/03/24 03:47:03;;;;;;;27.30;15.05;;;;;;;3.78;78.37;102858.91;5091453;28;20044;-57
2022/03/24 03:49:32;;;;;;;25.67;15.00;;;;;;;3.73;79.96;102868.47;5091335;28;20407;-67
2022/03/24 03:52:20;;;;;;;26.55;14.25;;;;;;;3.67;80.57;102864.16;5094811;28;20052;-57
2022/03/24 03:54:48;;;;;;;22.85;14.60;;;;;;;3.70;81.24;102860.69;5095238;28;20127;-65
2022/03/24 03:57:17;;;;;;;26.73;14.82;;;;;;;3.70;81.01;102858.94;5095273;28;20051;-65
2022/03/24 03:59:46;;;;;;;26.50;14.80;;;;;;;3.59;81.48;102859.88;5095954;28;20080;-65
2022/03/24 04:02:15;;;;;;;25.73;14.43;;;;;;;3.58;80.77;102861.59;5096146;28;20075;-57
2022/03/24 04:04:43;;;;;;;24.17;14.48;;;;;;;3.61;79.90;102858.13;5097060;28;20083;-56
2022/03/24 04:07:11;;;;;;;29.58;16.00;;;;;;;3.52;79.47;102862.47;5095330;28;20055;-64
2022/03/24 04:09:39;;;;;;;31.80;15.63;;;;;;;3.44;79.66;102869.44;5096755;28;20515;-65
2022/03/24 04:12:08;;;;;;;30.70;15.05;;;;;;;3.43;80.45;102859.91;5095832;28;20101;-57
2022/03/24 04:14:36;;;;;;;24.52;14.95;;;;;;;3.39;79.83;102865.97;5095353;28;20105;-57
2022/03/24 04:17:08;;;;;;;26.75;14.48;;;;;;;3.49;79.26;102866.81;5095455;28;20123;-57
2022/03/24 04:19:37;;;;;;;24.98;14.63;;;;;;;3.47;79.14;102861.63;5094972;28;20047;-57
2022/03/24 04:22:05;;;;;;;25.73;14.90;;;;;;;3.38;80.02;102867.72;5094700;28;20123;-57
2022/03/24 04:24:33;;;;;;;24.23;14.70;;;;;;;3.41;79.78;102871.19;5093483;28;20135;-57
2022/03/24 04:27:02;;;;;;;29.85;15.45;;;;;;;3.39;80.37;102863.38;5094890;28;20082;-58
2022/03/24 04:29:30;;;;;;;26.98;14.73;;;;;;;3.39;80.74;102868.59;5094865;28;20071;-57
2022/03/24 04:31:58;;;;;;;25.30;14.23;;;;;;;3.35;81.60;102865.16;5094702;28;20093;-57
2022/03/24 04:34:29;;;;;;;28.70;16.20;;;;;;;3.36;81.37;102863.41;5096947;28;20474;-66
2022/03/24 04:36:57;;;;;;;27.65;14.90;;;;;;;3.26;82.59;102864.28;5095867;28;20052;-65
2022/03/24 04:39:25;;;;;;;27.58;14.85;;;;;;;3.21;82.49;102862.56;5100790;28;20055;-64
2022/03/24 04:41:54;;;;;;;25.92;14.43;;;;;;;3.20;83.25;102859.97;5097273;28;20103;-66
2022/03/24 04:44:22;;;;;;;26.90;14.80;;;;;;;3.21;83.57;102862.56;5094169;28;20097;-65
2022/03/24 04:46:50;;;;;;;27.42;15.35;;;;;;;3.15;84.34;102864.28;5094080;28;20044;-65
2022/03/24 04:49:18;;;;;;;26.67;15.95;;;;;;;3.17;84.56;102868.63;5094261;28;20048;-66
2022/03/24 04:51:48;;;;;;;28.98;16.20;;;;;;;3.15;84.50;102875.59;5094757;28;20055;-65
2022/03/24 04:54:16;;;;;;;27.23;14.68;;;;;;;3.10;84.43;102874.72;5093156;28;20063;-66
2022/03/24 04:56:44;;;;;;;26.13;15.02;;;;;;;3.15;84.89;102870.38;5094435;28;20040;-66
2022/03/24 04:59:15;;;;;;;25.95;14.88;;;;;;;3.17;84.42;102867.78;5094366;28;20087;-66
2022/03/24 05:01:45;;;;;;;28.88;15.77;;;;;;;3.12;84.21;102867.81;5094246;28;20048;-66
2022/03/24 05:04:15;;;;;;;26.85;14.30;;;;;;;3.03;85.59;102865.19;5092623;28;20080;-66
2022/03/24 05:06:44;;;;;;;26.83;14.98;;;;;;;3.01;87.43;102870.41;5094294;28;20134;-66
2022/03/24 05:09:14;;;;;;;26.23;14.98;;;;;;;3.06;87.59;102867.78;5094133;28;20109;-66
2022/03/24 05:11:42;;;;;;;26.48;15.90;;;;;;;3.01;88.15;102877.31;5094325;28;20441;-66
2022/03/24 05:14:11;;;;;;;33.08;15.75;;;;;;;3.02;88.38;102868.66;5094083;28;20131;-65
2022/03/24 05:16:40;;;;;;;26.75;15.43;;;;;;;3.07;86.49;102874.72;5093837;28;20117;-65
2022/03/24 05:19:09;;;;;;;25.98;15.65;;;;;;;3.03;86.64;102867.81;5094012;28;20106;-65
2022/03/24 05:21:39;;;;;;;25.98;15.05;;;;;;;2.99;87.62;102873.88;5092870;28;20783;-65
2022/03/24 05:24:07;;;;;;;25.73;15.00;;;;;;;2.93;86.88;102864.34;5093715;28;20109;-64
2022/03/24 05:26:37;;;;;;;26.33;14.25;;;;;;;2.90;87.58;102868.69;5093834;28;20101;-66
2022/03/24 05:29:05;;;;;;;31.42;15.70;;;;;;;2.86;87.88;102871.28;5093827;28;20090;-65
2022/03/24 05:31:33;;;;;;;29.45;16.08;;;;;;;2.83;88.15;102876.47;5093590;28;20490;-65
2022/03/24 05:34:02;;;;;;;30.25;15.38;;;;;;;2.89;87.56;102875.63;5093407;28;20487;-65
2022/03/24 05:36:30;;;;;;;26.00;15.63;;;;;;;2.84;89.57;102875.59;5092524;28;20490;-65
2022/03/24 05:38:59;;;;;;;27.90;14.32;;;;;;;2.81;89.36;102875.63;5093508;28;20395;-66
2022/03/24 05:41:28;;;;;;;31.42;15.13;;;;;;;2.82;89.50;102876.47;5093494;28;20495;-64
2022/03/24 05:44:03;;;;;;;24.23;14.27;;;;;;;2.79;88.81;102869.53;5093153;28;20044;-65
2022/03/24 05:46:44;;;;;;;28.92;15.13;;;;;;;2.84;89.14;102877.34;5093554;28;20126;-64
2022/03/24 05:49:14;;;;;;;29.38;15.32;;;;;;;2.76;88.99;102882.53;5093542;28;20131;-64
2022/03/24 05:51:43;;;;;;;27.70;15.27;;;;;;;2.82;88.66;102881.66;5093280;28;20048;-64
2022/03/24 05:54:11;;;;;;;27.90;14.85;;;;;;;2.84;90.16;102880.81;5093118;28;20504;-65
2022/03/24 05:56:40;;;;;;;27.70;15.23;;;;;;;2.77;91.77;102878.19;5093296;28;20823;-65
2022/03/24 05:59:10;;;;;;;27.25;15.32;;;;;;;2.78;91.31;102880.81;5093198;28;20448;-57
2022/03/24 06:01:40;;;;;;;26.83;15.23;;;;;;;2.83;90.49;102888.59;5092916;28;20055;-57
2022/03/24 06:04:13;;;;;;;27.33;15.27;;;;;;;2.86;89.92;102884.28;5093133;28;20048;-55
2022/03/24 06:06:43;;;;;;;25.23;14.07;;;;;;;2.78;90.14;102885.13;5093322;28;20131;-65
2022/03/24 06:09:12;;;;;;;29.58;15.85;;;;;;;2.78;91.76;102880.81;5093349;28;20101;-64
2022/03/24 06:11:40;;;;;;;27.73;15.18;;;;;;;2.81;92.65;102880.81;5093202;28;20054;-58
2022/03/24 06:14:12;;;;;;;27.88;16.08;;;;;;;2.84;93.15;102882.53;5092711;28;20057;-65
2022/03/24 06:16:43;;;;;;;28.13;16.98;;;;;;;2.86;92.63;102888.59;5092744;28;20044;-65
2022/03/24 06:19:12;;;;;;;27.15;15.15;;;;;;;2.96;92.05;102885.13;5091637;28;20040;-65
2022/03/24 06:21:40;;;;;;;28.88;15.05;;;;;;;2.96;91.95;102889.44;5092620;28;20139;-57
2022/03/24 06:24:09;;;;;;;28.65;15.63;;;;;;;2.94;92.50;102892.06;5092732;28;20516;-65
2022/03/24 06:26:37;;;;;;;28.17;15.27;;;;;;;3.01;92.42;102892.94;5091390;28;20075;-57
2022/03/24 06:29:10;;;;;;;30.02;16.75;;;;;;;2.99;93.13;102892.06;5092727;28;20123;-57
2022/03/24 06:31:41;;;;;;;32.47;15.13;;;;;;;3.05;92.52;102897.25;5092472;28;20135;-57
2022/03/24 06:34:09;;;;;;;29.10;15.18;;;;;;;3.22;92.17;102894.66;5090970;28;20055;-58
2022/03/24 06:36:37;;;;;;;29.23;16.02;;;;;;;3.33;92.33;102899.84;5092633;28;20113;-57
2022/03/24 06:39:06;;;;;;;28.73;16.52;;;;;;;3.45;91.74;102899.81;5092645;28;20048;-57
2022/03/24 06:41:35;;;;;;;28.33;16.27;;;;;;;3.53;92.06;102904.97;5091047;28;20047;-58
2022/03/24 06:44:07;;;;;;;34.25;15.57;;;;;;;3.60;91.98;102904.09;5092351;28;20078;-57
2022/03/24 06:46:36;;;;;;;35.25;15.10;;;;;;;3.71;91.74;102904.94;5092647;28;20519;-57
2022/03/24 06:49:06;;;;;;;29.90;16.08;;;;;;;3.72;92.32;102906.66;5092160;28;20073;-56
2022/03/24 06:51:35;;;;;;;31.77;17.35;;;;;;;3.80;93.49;102904.00;5091995;28;20044;-63
2022/03/24 06:54:04;;;;;;;32.30;17.48;;;;;;;3.77;94.15;102904.03;5092168;28;20044;-64
2022/03/24 06:56:33;;;;;;;33.72;18.02;;;;;;;3.77;94.73;102904.03;5092615;28;20040;-64
2022/03/24 06:59:02;;;;;;;31.38;17.73;;;;;;;3.79;95.61;102906.63;5092005;28;20048;-57
2022/03/24 07:01:30;;;;;;;34.20;18.02;;;;;;;3.81;96.78;102905.75;5092249;28;20102;-64
2022/03/24 07:04:00;;;;;;;35.88;18.15;;;;;;;3.87;97.81;102912.66;5092206;28;20051;-57
2022/03/24 07:06:30;;;;;;;34.15;19.38;;;;;;;3.93;98.13;102902.25;5092143;28;20040;-58
2022/03/24 07:08:58;;;;;;;32.97;19.02;;;;;;;4.00;98.58;102908.28;5092121;28;20044;-64
2022/03/24 07:11:26;;;;;;;33.28;18.25;;;;;;;4.10;98.72;102904.75;5092035;28;20043;-64
2022/03/24 07:13:54;;;;;;;36.50;19.00;;;;;;;4.19;98.59;102904.72;5092211;28;20109;-57
2022/03/24 07:16:22;;;;;;;36.33;19.77;;;;;;;4.38;98.86;102900.25;5092298;28;20478;-58
2022/03/24 07:18:51;;;;;;;34.22;18.95;;;;;;;4.57;98.33;102908.81;5092311;28;20048;-64
2022/03/24 07:21:20;;;;;;;32.22;17.45;;;;;;;4.84;97.16;102899.06;5091839;28;20047;-64
2022/03/24 07:23:50;;;;;;;32.78;17.48;;;;;;;5.15;94.63;102906.59;5091844;28;20051;-57
2022/03/24 07:26:18;;;;;;;35.70;18.10;;;;;;;5.34;92.97;102909.03;5093830;28;20105;-57
2022/03/24 07:28:48;;;;;;;34.80;19.42;;;;;;;5.47;90.86;102900.19;5095945;28;20078;-57
2022/03/24 07:31:19;;;;;;;33.15;18.20;;;;;;;5.70;90.14;102901.66;5095805;28;20044;-64
2022/03/24 07:33:48;;;;;;;35.05;17.98;;;;;;;6.02;88.00;102903.91;5096201;28;20463;-58
2022/03/24 07:36:22;;;;;;;35.55;18.27;;;;;;;6.43;87.17;102906.84;5096036;28;20044;-58
2022/03/24 07:38:52;;;;;;;32.47;16.98;;;;;;;6.88;84.59;102906.16;5096139;28;20040;-58
2022/03/24 07:41:21;;;;;;;38.20;19.27;;;;;;;7.22;78.95;102908.19;5081743;28;20066;-64
2022/03/24 07:43:49;;;;;;;34.63;17.98;;;;;;;7.64;76.83;102904.78;5070991;28;20048;-65
2022/03/24 07:46:17;;;;;;;31.17;18.48;;;;;;;7.74;75.81;102907.19;5055830;28;20533;-56
2022/03/24 07:48:47;;;;;;;32.80;18.38;;;;;;;8.09;73.69;102908.19;5055199;28;20045;-62
2022/03/24 07:51:16;;;;;;;32.35;18.63;;;;;;;8.44;70.33;102905.69;5055054;28;20061;-62
2022/03/24 07:53:58;;;;;;;33.70;19.25;;;;;;;8.55;69.66;102897.56;5055122;28;20099;-62
2022/03/24 07:56:26;;;;;;;34.13;18.63;;;;;;;8.93;66.76;102901.00;5055179;28;20052;-62
2022/03/24 07:58:56;;;;;;;34.60;20.30;;;;;;;9.34;63.44;102903.47;5054933;28;20068;-63
2022/03/24 08:01:29;;;;;;;32.50;18.63;;;;;;;9.82;64.08;102908.25;5055249;28;20049;-62
2022/03/24 08:03:59;;;;;;;32.40;17.35;;;;;;;9.98;59.87;102901.63;5055191;28;20072;-62
2022/03/24 08:06:29;;;;;;;36.38;19.23;;;;;;;10.27;57.38;102910.41;5055001;28;20055;-63
2022/03/24 08:08:59;;;;;;;32.75;19.30;;;;;;;10.54;56.83;102905.22;5055016;28;20040;-63
2022/03/24 08:11:28;;;;;;;34.47;18.98;;;;;;;10.79;58.67;102905.25;5053788;28;20049;-62
2022/03/24 08:13:56;;;;;;;32.88;19.45;;;;;;;10.93;55.40;102912.69;5053591;28;20045;-63
2022/03/24 08:16:26;;;;;;;34.05;19.63;;;;;;;11.09;53.18;102906.91;5054832;28;20051;-62
2022/03/24 08:18:55;;;;;;;41.80;20.60;;;;;;;11.24;52.07;102913.44;5054852;28;20041;-63
2022/03/24 08:21:23;;;;;;;70.90;24.05;;;;;;;11.39;50.19;102917.28;5054758;28;20071;-63
2022/03/24 08:23:52;;;;;;;35.85;19.40;;;;;;;11.59;49.88;102916.56;5054685;28;20052;-63
2022/03/24 08:26:22;;;;;;;32.03;20.08;;;;;;;11.84;50.10;102920.00;5054587;28;20045;-63
2022/03/24 08:28:56;;;;;;;37.25;19.85;;;;;;;12.08;47.36;102920.03;5054940;28;20132;-63
2022/03/24 08:31:28;;;;;;;34.90;19.80;;;;;;;12.49;47.27;102911.41;5054524;28;20041;-63
2022/03/24 08:33:57;;;;;;;33.80;19.23;;;;;;;12.70;46.38;102909.66;5054566;28;20091;-63
2022/03/24 08:36:26;;;;;;;31.80;19.55;;;;;;;12.98;46.82;102908.53;5054144;28;20045;-64
2022/03/24 08:38:56;;;;;;;37.00;19.83;;;;;;;13.19;46.34;102914.66;5053550;28;20157;-63
2022/03/24 08:41:26;;;;;;;32.92;18.65;;;;;;;13.44;45.83;102909.19;5054165;28;20136;-63
2022/03/24 08:43:54;;;;;;;32.47;19.77;;;;;;;13.67;44.63;102918.72;5054486;28;20045;-63
2022/03/24 08:46:24;;;;;;;30.60;19.23;;;;;;;13.98;44.40;102913.81;5054296;28;20053;-63
2022/03/24 08:48:54;;;;;;;31.40;19.35;;;;;;;14.26;44.61;102915.13;5054414;28;20069;-63
2022/03/24 08:51:24;;;;;;;30.67;20.27;;;;;;;14.46;43.87;102909.72;5054226;28;20050;-63
2022/03/24 08:53:53;;;;;;;31.08;19.20;;;;;;;14.80;41.71;102923.13;5054168;28;20045;-63
2022/03/24 08:56:22;;;;;;;38.13;21.00;;;;;;;14.97;43.49;102916.97;5053740;28;20056;-65
2022/03/24 08:58:52;;;;;;;32.38;18.80;;;;;;;15.32;40.42;102925.72;5053621;28;20492;-62
2022/03/24 09:01:21;;;;;;;32.22;19.67;;;;;;;15.60;42.39;102926.06;5054024;28;20104;-62
2022/03/24 09:03:51;;;;;;;31.65;21.23;;;;;;;15.78;41.44;102926.91;5054017;28;20113;-62
2022/03/24 09:06:21;;;;;;;31.20;19.50;;;;;;;15.98;39.54;102928.47;5051964;28;20052;-62
2022/03/24 09:08:50;;;;;;;31.45;20.30;;;;;;;16.09;37.92;102927.88;5053876;28;20102;-61
2022/03/24 09:11:18;;;;;;;31.10;19.85;;;;;;;16.31;40.00;102925.72;5053081;28;20037;-62
2022/03/24 09:13:46;;;;;;;32.08;21.50;;;;;;;16.43;37.73;102933.94;5052963;28;20072;-62
2022/03/24 09:16:17;;;;;;;30.42;20.42;;;;;;;16.58;37.13;102926.88;5052884;28;20124;-62
2022/03/24 09:18:45;;;;;;;29.60;20.38;;;;;;;16.83;37.12;102927.16;5053006;28;20091;-63
2022/03/24 09:21:13;;;;;;;29.13;20.30;;;;;;;16.93;35.38;102922.19;5052944;28;20052;-63
2022/03/24 09:23:41;;;;;;;32.67;22.27;;;;;;;17.09;36.00;102929.28;5051612;28;20087;-58
2022/03/24 09:26:12;;;;;;;33.80;22.02;;;;;;;17.30;36.52;102927.09;5053257;28;20055;-58
2022/03/24 09:28:56;;;;;;;36.88;23.80;;;;;;;17.51;35.43;102930.25;5053300;28;20102;-58
2022/03/24 09:31:26;;;;;;;35.45;22.85;;;;;;;17.55;35.53;102926.47;5053140;28;20103;-58
2022/03/24 09:33:54;;;;;;;34.40;23.58;;;;;;;17.64;33.87;102927.69;5052962;28;20049;-58
2022/03/24 09:36:22;;;;;;;33.38;23.38;;;;;;;17.76;35.43;102931.38;5053287;28;20078;-58
2022/03/24 09:38:51;;;;;;;36.92;23.95;;;;;;;17.91;35.74;102930.41;5051450;28;20071;-58
2022/03/24 09:41:20;;;;;;;36.28;23.60;;;;;;;18.13;33.42;102929.06;5052977;28;20435;-58
2022/03/24 09:43:49;;;;;;;34.13;22.50;;;;;;;18.39;34.02;102925.56;5052888;28;20512;-58
2022/03/24 09:46:19;;;;;;;32.95;22.10;;;;;;;18.62;32.57;102928.50;5051374;28;20144;-58
2022/03/24 09:48:49;;;;;;;33.83;22.45;;;;;;;18.68;31.78;102925.44;5052430;28;20036;-58
2022/03/24 09:51:17;;;;;;;36.22;22.23;;;;;;;18.60;31.27;102922.44;5052803;28;20049;-57
2022/03/24 09:53:45;;;;;;;29.77;21.17;;;;;;;18.89;32.11;102922.31;5052661;28;20557;-57
2022/03/24 09:56:14;;;;;;;26.75;19.40;;;;;;;19.00;27.93;102918.91;5053073;28;20049;-57
2022/03/24 09:58:44;;;;;;;28.33;20.50;;;;;;;19.19;31.46;102924.69;5052411;28;20053;-58
2022/03/24 10:01:17;;;;;;;30.42;21.58;;;;;;;19.41;31.42;102932.06;5052582;28;20044;-58
2022/03/24 10:04:06;;;;;;;27.15;17.67;;;;;;;19.52;27.89;102925.09;5052622;28;20399;-58
2022/03/24 10:06:36;;;;;;;24.88;18.52;;;;;;;19.68;28.83;102925.72;5052351;28;20047;-58
2022/03/24 10:09:05;;;;;;;25.38;18.02;;;;;;;19.69;28.25;102919.41;5052416;28;20063;-58
2022/03/24 10:11:35;;;;;;;25.70;17.85;;;;;;;19.84;28.79;102920.16;5052534;28;20109;-57
2022/03/24 10:14:04;;;;;;;27.83;17.23;;;;;;;20.10;29.06;102909.41;5084583;28;20118;-58
2022/03/24 10:16:43;;;;;;;26.38;17.58;;;;;;;20.23;28.89;102918.22;5051959;28;20595;-58
2022/03/24 10:19:15;;;;;;;27.63;18.35;;;;;;;20.54;28.83;102913.25;5071186;28;20045;-58
2022/03/24 10:21:45;;;;;;;29.50;18.47;;;;;;;20.53;28.52;102910.69;5072197;28;20127;-58
2022/03/24 10:24:15;;;;;;;26.70;17.75;;;;;;;20.48;27.81;102907.50;5072375;28;20060;-58
2022/03/24 10:26:46;;;;;;;27.98;18.98;;;;;;;20.52;28.26;102909.84;5072281;28;20048;-57
2022/03/24 10:29:17;;;;;;;26.83;17.73;;;;;;;20.48;28.92;102907.50;5072128;28;20127;-57
2022/03/24 10:31:45;;;;;;;27.85;18.10;;;;;;;20.71;28.54;102906.69;5072134;28;20494;-56
2022/03/24 10:34:15;;;;;;;26.98;17.85;;;;;;;21.04;27.81;102905.03;5071853;28;20517;-57
2022/03/24 10:36:43;;;;;;;26.15;17.30;;;;;;;21.04;27.77;102905.03;5072098;28;20040;-59
2022/03/24 10:39:11;;;;;;;29.42;17.52;;;;;;;20.75;28.89;102905.47;5070777;28;20049;-57
2022/03/24 10:41:40;;;;;;;24.58;16.13;;;;;;;21.00;28.35;102903.56;5071951;28;20041;-57
2022/03/24 10:44:10;;;;;;;28.15;15.73;;;;;;;21.23;27.86;102896.44;5071716;28;20065;-57
2022/03/24 10:46:41;;;;;;;25.02;16.55;;;;;;;21.46;27.20;102899.13;5071696;28;20055;-57
2022/03/24 10:49:22;;;;;;;24.92;15.10;;;;;;;21.65;26.89;102901.22;5072018;28;20388;-57
2022/03/24 10:51:56;;;;;;;24.92;15.57;;;;;;;21.67;26.94;102903.75;5071857;28;20449;-57
2022/03/24 10:54:39;;;;;;;25.30;14.25;;;;;;;21.80;26.70;102898.25;5072083;28;20143;-57
2022/03/24 10:57:09;;;;;;;25.40;15.88;;;;;;;22.19;26.55;102896.81;5071622;28;20044;-57
2022/03/24 10:59:42;;;;;;;29.15;15.82;;;;;;;21.93;26.49;102901.63;5071421;28;20071;-57
2022/03/24 11:02:11;;;;;;;24.00;15.75;;;;;;;21.62;26.97;102898.75;5071366;28;20043;-57
2022/03/24 11:04:41;;;;;;;31.48;16.95;;;;;;;21.91;26.44;102899.09;5071761;28;20047;-63
2022/03/24 11:07:10;;;;;;;26.23;17.00;;;;;;;21.94;26.40;102892.63;5071764;28;20052;-63
2022/03/24 11:09:38;;;;;;;24.33;16.70;;;;;;;22.53;25.29;102895.84;5071806;28;20110;-63
2022/03/24 11:12:28;;;;;;;25.23;16.33;;;;;;;22.53;25.50;102898.53;5072189;28;20406;-63
2022/03/24 11:15:00;;;;;;;26.60;15.85;;;;;;;22.67;25.20;102892.84;5071850;28;20094;-57
2022/03/24 11:17:31;;;;;;;28.43;17.87;;;;;;;22.76;25.56;102889.38;5071318;28;20048;-57
2022/03/24 11:20:08;;;;;;;27.65;17.95;;;;;;;22.24;25.96;102894.59;5071558;28;20036;-63
2022/03/24 11:22:47;;;;;;;29.70;18.80;;;;;;;22.66;25.87;102885.81;5072088;28;20616;-63
2022/03/24 11:25:17;;;;;;;28.98;18.38;;;;;;;22.73;26.04;102892.34;5071727;28;20076;-62
2022/03/24 11:27:46;;;;;;;29.83;18.25;;;;;;;22.88;26.37;102878.59;5071932;28;20060;-63
2022/03/24 11:30:15;;;;;;;27.45;17.70;;;;;;;23.17;25.92;102881.44;5071633;28;20050;-58
2022/03/24 11:32:45;;;;;;;26.23;19.00;;;;;;;23.03;24.82;102881.75;5070487;28;20045;-59
2022/03/24 11:35:15;;;;;;;26.73;18.90;;;;;;;22.87;25.78;102884.94;5071613;28;20037;-58
2022/03/24 11:37:44;;;;;;;27.70;18.13;;;;;;;23.16;25.35;102874.38;5071407;28;20155;-64
2022/03/24 11:40:16;;;;;;;26.08;17.70;;;;;;;22.95;24.36;102875.25;5070349;28;20052;-64